sensor_id;sensor_type;location;lat;lon;timestamp;P1;durP1;ratioP1;P2;durP2;ratioP2
20776;SDS011;10548;47.504;8.248;2023-06-22T01:04:52;20.43;;;7.67;;
20776;SDS011;10548;47.504;8.248;2023-06-22T01:10:27;19.80;;;7.73;;
20776;SDS011;10548;47.504;8.248;2023-06-22T01:13:04;16.50;;;7.90;;
20776;SDS011;10548;47.504;8.248;2023-06-22T01:15:38;20.13;;;7.70;;
20776;SDS011;10548;47.504;8.248;2023-06-22T01:18:11;23.13;;;8.30;;
20776;SDS011;10548;47.504;8.248;2023-06-22T01:20:42;19.50;;;8.30;;
20776;SDS011;10548;47.504;8.248;2023-06-22T01:26:02;20.30;;;9.10;;
20776;SDS011;10548;47.504;8.248;2023-06-22T01:28:50;21.87;;;8.73;;
20776;SDS011;10548;47.504;8.248;2023-06-22T01:31:26;19.23;;;8.03;;
20776;SDS011;10548;47.504;8.248;2023-06-22T01:33:57;16.03;;;8.97;;
20776;SDS011;10548;47.504;8.248;2023-06-22T01:36:25;17.57;;;9.17;;
20776;SDS011;10548;47.504;8.248;2023-06-22T01:38:53;18.57;;;8.80;;
20776;SDS011;10548;47.504;8.248;2023-06-22T01:41:21;17.57;;;8.10;;
20776;SDS011;10548;47.504;8.248;2023-06-22T01:43:49;21.67;;;8.33;;
20776;SDS011;10548;47.504;8.248;2023-06-22T01:46:19;24.57;;;9.67;;
20776;SDS011;10548;47.504;8.248;2023-06-22T01:48:47;15.73;;;8.20;;
20776;SDS011;10548;47.504;8.248;2023-06-22T01:51:14;18.23;;;8.87;;
20776;SDS011;10548;47.504;8.248;2023-06-22T01:53:42;20.40;;;9.07;;
20776;SDS011;10548;47.504;8.248;2023-06-22T01:56:10;22.83;;;8.97;;
20776;SDS011;10548;47.504;8.248;2023-06-22T02:01:23;20.77;;;9.60;;
20776;SDS011;10548;47.504;8.248;2023-06-22T02:04:02;20.37;;;9.87;;
20776;SDS011;10548;47.504;8.248;2023-06-22T02:06:33;18.23;;;9.07;;
20776;SDS011;10548;47.504;8.248;2023-06-22T02:09:06;18.40;;;9.27;;
20776;SDS011;10548;47.504;8.248;2023-06-22T02:11:37;19.60;;;9.17;;
20776;SDS011;10548;47.504;8.248;2023-06-22T02:14:04;22.47;;;9.60;;
20776;SDS011;10548;47.504;8.248;2023-06-22T02:16:32;17.10;;;8.80;;
20776;SDS011;10548;47.504;8.248;2023-06-22T02:19:02;18.77;;;9.67;;
20776;SDS011;10548;47.504;8.248;2023-06-22T02:21:32;20.27;;;9.20;;
20776;SDS011;10548;47.504;8.248;2023-06-22T02:24:00;23.70;;;9.50;;
20776;SDS011;10548;47.504;8.248;2023-06-22T02:26:29;19.53;;;9.17;;
20776;SDS011;10548;47.504;8.248;2023-06-22T02:28:57;19.10;;;9.47;;
20776;SDS011;10548;47.504;8.248;2023-06-22T02:31:24;20.77;;;9.67;;
20776;SDS011;10548;47.504;8.248;2023-06-22T02:34:00;26.77;;;9.80;;
20776;SDS011;10548;47.504;8.248;2023-06-22T02:36:28;17.23;;;9.10;;
20776;SDS011;10548;47.504;8.248;2023-06-22T02:38:59;19.10;;;9.60;;
20776;SDS011;10548;47.504;8.248;2023-06-22T02:41:29;16.87;;;9.17;;
20776;SDS011;10548;47.504;8.248;2023-06-22T02:43:56;25.73;;;9.80;;
20776;SDS011;10548;47.504;8.248;2023-06-22T02:46:24;15.40;;;9.40;;
20776;SDS011;10548;47.504;8.248;2023-06-22T02:48:52;19.03;;;9.57;;
20776;SDS011;10548;47.504;8.248;2023-06-22T02:51:19;14.47;;;9.07;;
20776;SDS011;10548;47.504;8.248;2023-06-22T02:53:47;17.47;;;9.70;;
20776;SDS011;10548;47.504;8.248;2023-06-22T02:56:15;16.47;;;9.87;;
20776;SDS011;10548;47.504;8.248;2023-06-22T02:58:44;15.67;;;9.47;;
20776;SDS011;10548;47.504;8.248;2023-06-22T03:01:12;19.33;;;9.50;;
20776;SDS011;10548;47.504;8.248;2023-06-22T03:03:44;16.93;;;9.30;;
20776;SDS011;10548;47.504;8.248;2023-06-22T03:06:12;17.27;;;9.60;;
20776;SDS011;10548;47.504;8.248;2023-06-22T03:08:41;18.63;;;9.37;;
20776;SDS011;10548;47.504;8.248;2023-06-22T03:11:09;18.13;;;9.50;;
20776;SDS011;10548;47.504;8.248;2023-06-22T03:13:37;21.43;;;9.93;;
20776;SDS011;10548;47.504;8.248;2023-06-22T03:16:06;20.57;;;10.47;;
20776;SDS011;10548;47.504;8.248;2023-06-22T03:18:33;17.03;;;9.80;;
20776;SDS011;10548;47.504;8.248;2023-06-22T03:21:01;17.53;;;9.73;;
20776;SDS011;10548;47.504;8.248;2023-06-22T03:23:30;20.77;;;9.50;;
20776;SDS011;10548;47.504;8.248;2023-06-22T03:25:57;17.17;;;10.27;;
20776;SDS011;10548;47.504;8.248;2023-06-22T03:28:25;17.37;;;9.70;;
20776;SDS011;10548;47.504;8.248;2023-06-22T03:30:53;18.93;;;10.10;;
20776;SDS011;10548;47.504;8.248;2023-06-22T03:33:21;15.70;;;10.93;;
20776;SDS011;10548;47.504;8.248;2023-06-22T03:35:49;22.67;;;12.17;;
20776;SDS011;10548;47.504;8.248;2023-06-22T03:38:17;22.40;;;11.40;;
20776;SDS011;10548;47.504;8.248;2023-06-22T03:40:44;18.93;;;10.40;;
20776;SDS011;10548;47.504;8.248;2023-06-22T03:43:12;18.60;;;11.13;;
20776;SDS011;10548;47.504;8.248;2023-06-22T03:45:39;21.13;;;11.63;;
20776;SDS011;10548;47.504;8.248;2023-06-22T03:48:06;19.40;;;10.93;;
20776;SDS011;10548;47.504;8.248;2023-06-22T03:50:34;16.17;;;10.30;;
20776;SDS011;10548;47.504;8.248;2023-06-22T03:53:02;25.67;;;9.80;;
20776;SDS011;10548;47.504;8.248;2023-06-22T03:55:29;17.93;;;9.23;;
20776;SDS011;10548;47.504;8.248;2023-06-22T03:57:57;20.53;;;9.43;;
20776;SDS011;10548;47.504;8.248;2023-06-22T04:00:24;18.27;;;10.00;;
20776;SDS011;10548;47.504;8.248;2023-06-22T04:02:52;22.03;;;12.20;;
20776;SDS011;10548;47.504;8.248;2023-06-22T04:05:20;16.43;;;10.70;;
20776;SDS011;10548;47.504;8.248;2023-06-22T04:07:47;18.57;;;10.30;;
20776;SDS011;10548;47.504;8.248;2023-06-22T04:10:15;27.73;;;11.47;;
20776;SDS011;10548;47.504;8.248;2023-06-22T04:12:43;33.77;;;12.97;;
20776;SDS011;10548;47.504;8.248;2023-06-22T04:15:11;16.37;;;10.37;;
20776;SDS011;10548;47.504;8.248;2023-06-22T04:17:38;22.60;;;11.97;;
20776;SDS011;10548;47.504;8.248;2023-06-22T04:20:06;20.57;;;10.67;;
20776;SDS011;10548;47.504;8.248;2023-06-22T04:22:38;20.17;;;10.80;;
20776;SDS011;10548;47.504;8.248;2023-06-22T04:25:07;25.60;;;13.60;;
20776;SDS011;10548;47.504;8.248;2023-06-22T04:27:34;22.47;;;11.73;;
20776;SDS011;10548;47.504;8.248;2023-06-22T04:30:03;15.43;;;9.00;;
20776;SDS011;10548;47.504;8.248;2023-06-22T04:32:33;13.77;;;9.27;;
20776;SDS011;10548;47.504;8.248;2023-06-22T04:35:03;21.97;;;9.80;;
20776;SDS011;10548;47.504;8.248;2023-06-22T04:37:33;23.50;;;9.73;;
20776;SDS011;10548;47.504;8.248;2023-06-22T04:40:01;16.47;;;8.83;;
20776;SDS011;10548;47.504;8.248;2023-06-22T04:42:33;17.33;;;10.70;;
20776;SDS011;10548;47.504;8.248;2023-06-22T04:45:01;17.97;;;9.67;;
20776;SDS011;10548;47.504;8.248;2023-06-22T04:47:28;25.10;;;10.03;;
20776;SDS011;10548;47.504;8.248;2023-06-22T04:49:56;21.77;;;9.77;;
20776;SDS011;10548;47.504;8.248;2023-06-22T04:52:23;17.33;;;8.90;;
20776;SDS011;10548;47.504;8.248;2023-06-22T04:54:51;18.90;;;9.00;;
20776;SDS011;10548;47.504;8.248;2023-06-22T04:57:22;19.37;;;8.77;;
20776;SDS011;10548;47.504;8.248;2023-06-22T04:59:57;17.83;;;10.00;;
20776;SDS011;10548;47.504;8.248;2023-06-22T05:02:33;16.80;;;9.70;;
20776;SDS011;10548;47.504;8.248;2023-06-22T05:05:01;22.47;;;10.83;;
20776;SDS011;10548;47.504;8.248;2023-06-22T05:07:33;18.27;;;9.47;;
20776;SDS011;10548;47.504;8.248;2023-06-22T05:10:02;17.07;;;9.53;;
20776;SDS011;10548;47.504;8.248;2023-06-22T05:12:30;19.83;;;10.00;;
20776;SDS011;10548;47.504;8.248;2023-06-22T05:14:57;20.77;;;9.17;;
20776;SDS011;10548;47.504;8.248;2023-06-22T05:17:25;19.90;;;9.47;;
20776;SDS011;10548;47.504;8.248;2023-06-22T05:19:52;23.87;;;9.47;;
20776;SDS011;10548;47.504;8.248;2023-06-22T05:22:20;24.47;;;9.47;;
20776;SDS011;10548;47.504;8.248;2023-06-22T05:24:47;14.87;;;8.10;;
20776;SDS011;10548;47.504;8.248;2023-06-22T05:27:15;15.83;;;9.53;;
20776;SDS011;10548;47.504;8.248;2023-06-22T05:29:42;18.03;;;9.30;;
20776;SDS011;10548;47.504;8.248;2023-06-22T05:32:10;18.17;;;9.53;;
20776;SDS011;10548;47.504;8.248;2023-06-22T05:34:37;20.27;;;10.17;;
20776;SDS011;10548;47.504;8.248;2023-06-22T05:37:05;16.37;;;9.70;;
20776;SDS011;10548;47.504;8.248;2023-06-22T05:39:33;20.13;;;10.70;;
20776;SDS011;10548;47.504;8.248;2023-06-22T05:42:00;22.80;;;10.23;;
20776;SDS011;10548;47.504;8.248;2023-06-22T05:44:27;20.80;;;9.47;;
20776;SDS011;10548;47.504;8.248;2023-06-22T05:46:55;20.67;;;10.67;;
20776;SDS011;10548;47.504;8.248;2023-06-22T05:49:22;21.13;;;11.03;;
20776;SDS011;10548;47.504;8.248;2023-06-22T05:51:56;17.63;;;10.10;;
20776;SDS011;10548;47.504;8.248;2023-06-22T05:54:23;23.53;;;10.80;;
20776;SDS011;10548;47.504;8.248;2023-06-22T05:56:50;17.33;;;10.20;;
20776;SDS011;10548;47.504;8.248;2023-06-22T05:59:18;22.27;;;10.67;;
20776;SDS011;10548;47.504;8.248;2023-06-22T06:01:45;25.17;;;11.13;;
20776;SDS011;10548;47.504;8.248;2023-06-22T06:04:17;19.10;;;10.67;;
20776;SDS011;10548;47.504;8.248;2023-06-22T06:06:45;19.77;;;11.07;;
20776;SDS011;10548;47.504;8.248;2023-06-22T06:09:14;23.27;;;11.73;;
20776;SDS011;10548;47.504;8.248;2023-06-22T06:11:41;18.53;;;10.17;;
20776;SDS011;10548;47.504;8.248;2023-06-22T06:14:09;20.27;;;10.93;;
20776;SDS011;10548;47.504;8.248;2023-06-22T06:16:36;26.07;;;10.90;;
20776;SDS011;10548;47.504;8.248;2023-06-22T06:19:04;20.83;;;9.73;;
20776;SDS011;10548;47.504;8.248;2023-06-22T06:21:31;20.83;;;10.57;;
20776;SDS011;10548;47.504;8.248;2023-06-22T06:23:59;15.87;;;9.37;;
20776;SDS011;10548;47.504;8.248;2023-06-22T06:26:26;26.30;;;9.80;;
20776;SDS011;10548;47.504;8.248;2023-06-22T06:28:59;17.13;;;10.40;;
20776;SDS011;10548;47.504;8.248;2023-06-22T06:31:28;25.47;;;10.00;;
20776;SDS011;10548;47.504;8.248;2023-06-22T06:33:57;26.50;;;9.33;;
20776;SDS011;10548;47.504;8.248;2023-06-22T06:36:24;17.47;;;8.43;;
20776;SDS011;10548;47.504;8.248;2023-06-22T06:38:51;20.13;;;8.80;;
20776;SDS011;10548;47.504;8.248;2023-06-22T06:41:19;14.23;;;8.13;;
20776;SDS011;10548;47.504;8.248;2023-06-22T06:43:47;17.07;;;8.27;;
20776;SDS011;10548;47.504;8.248;2023-06-22T06:46:15;18.13;;;8.10;;
20776;SDS011;10548;47.504;8.248;2023-06-22T06:48:42;17.60;;;9.37;;
20776;SDS011;10548;47.504;8.248;2023-06-22T06:51:10;22.37;;;9.00;;
20776;SDS011;10548;47.504;8.248;2023-06-22T06:53:37;20.83;;;9.40;;
20776;SDS011;10548;47.504;8.248;2023-06-22T06:56:05;16.30;;;8.63;;
20776;SDS011;10548;47.504;8.248;2023-06-22T06:58:32;24.17;;;9.77;;
20776;SDS011;10548;47.504;8.248;2023-06-22T07:01:00;30.40;;;10.10;;
20776;SDS011;10548;47.504;8.248;2023-06-22T07:03:27;20.57;;;9.93;;
20776;SDS011;10548;47.504;8.248;2023-06-22T07:05:55;18.10;;;8.93;;
20776;SDS011;10548;47.504;8.248;2023-06-22T07:08:22;17.67;;;9.10;;
20776;SDS011;10548;47.504;8.248;2023-06-22T07:10:50;21.53;;;9.20;;
20776;SDS011;10548;47.504;8.248;2023-06-22T07:13:18;24.10;;;9.80;;
20776;SDS011;10548;47.504;8.248;2023-06-22T07:15:46;21.80;;;9.00;;
20776;SDS011;10548;47.504;8.248;2023-06-22T07:18:13;19.53;;;9.57;;
20776;SDS011;10548;47.504;8.248;2023-06-22T07:20:41;21.40;;;8.50;;
20776;SDS011;10548;47.504;8.248;2023-06-22T07:23:09;19.67;;;9.10;;
20776;SDS011;10548;47.504;8.248;2023-06-22T07:25:36;14.90;;;8.37;;
20776;SDS011;10548;47.504;8.248;2023-06-22T07:28:06;16.77;;;7.80;;
20776;SDS011;10548;47.504;8.248;2023-06-22T07:30:33;16.47;;;8.17;;
20776;SDS011;10548;47.504;8.248;2023-06-22T07:33:01;13.20;;;8.13;;
20776;SDS011;10548;47.504;8.248;2023-06-22T07:35:35;16.63;;;7.83;;
20776;SDS011;10548;47.504;8.248;2023-06-22T07:38:02;16.63;;;8.00;;
20776;SDS011;10548;47.504;8.248;2023-06-22T07:40:32;19.67;;;8.27;;
20776;SDS011;10548;47.504;8.248;2023-06-22T07:43:00;16.17;;;8.00;;
20776;SDS011;10548;47.504;8.248;2023-06-22T07:45:28;23.17;;;7.67;;
20776;SDS011;10548;47.504;8.248;2023-06-22T07:47:55;20.73;;;10.67;;
20776;SDS011;10548;47.504;8.248;2023-06-22T07:50:23;21.50;;;8.97;;
20776;SDS011;10548;47.504;8.248;2023-06-22T07:52:50;22.03;;;9.17;;
20776;SDS011;10548;47.504;8.248;2023-06-22T07:55:19;13.77;;;7.70;;
20776;SDS011;10548;47.504;8.248;2023-06-22T07:57:47;21.47;;;8.07;;
20776;SDS011;10548;47.504;8.248;2023-06-22T08:00:14;21.30;;;8.17;;
20776;SDS011;10548;47.504;8.248;2023-06-22T08:02:43;18.30;;;8.37;;
20776;SDS011;10548;47.504;8.248;2023-06-22T08:05:11;16.43;;;7.97;;
20776;SDS011;10548;47.504;8.248;2023-06-22T08:07:47;12.43;;;7.60;;
20776;SDS011;10548;47.504;8.248;2023-06-22T08:10:15;17.30;;;8.53;;
20776;SDS011;10548;47.504;8.248;2023-06-22T08:12:42;18.87;;;7.93;;
20776;SDS011;10548;47.504;8.248;2023-06-22T08:15:10;21.70;;;8.73;;
20776;SDS011;10548;47.504;8.248;2023-06-22T08:17:37;20.87;;;8.57;;
20776;SDS011;10548;47.504;8.248;2023-06-22T08:20:06;14.90;;;7.20;;
20776;SDS011;10548;47.504;8.248;2023-06-22T08:22:38;20.53;;;9.53;;
20776;SDS011;10548;47.504;8.248;2023-06-22T08:25:06;21.53;;;8.57;;
20776;SDS011;10548;47.504;8.248;2023-06-22T08:27:34;18.70;;;8.60;;
20776;SDS011;10548;47.504;8.248;2023-06-22T08:30:02;19.97;;;8.47;;
20776;SDS011;10548;47.504;8.248;2023-06-22T08:32:29;20.63;;;9.63;;
20776;SDS011;10548;47.504;8.248;2023-06-22T08:34:59;20.57;;;10.13;;
20776;SDS011;10548;47.504;8.248;2023-06-22T08:37:27;17.43;;;9.93;;
20776;SDS011;10548;47.504;8.248;2023-06-22T08:40:03;18.00;;;9.07;;
20776;SDS011;10548;47.504;8.248;2023-06-22T08:42:37;19.77;;;9.40;;
20776;SDS011;10548;47.504;8.248;2023-06-22T08:45:05;19.87;;;8.97;;
20776;SDS011;10548;47.504;8.248;2023-06-22T08:47:33;25.20;;;9.17;;
20776;SDS011;10548;47.504;8.248;2023-06-22T08:50:00;18.77;;;8.67;;
20776;SDS011;10548;47.504;8.248;2023-06-22T08:52:31;23.77;;;9.20;;
20776;SDS011;10548;47.504;8.248;2023-06-22T08:54:58;29.00;;;10.93;;
20776;SDS011;10548;47.504;8.248;2023-06-22T08:57:29;22.10;;;10.07;;
20776;SDS011;10548;47.504;8.248;2023-06-22T08:59:57;22.27;;;11.47;;
20776;SDS011;10548;47.504;8.248;2023-06-22T09:02:26;22.67;;;10.93;;
20776;SDS011;10548;47.504;8.248;2023-06-22T09:04:57;24.87;;;11.57;;
20776;SDS011;10548;47.504;8.248;2023-06-22T09:07:25;29.03;;;12.50;;
20776;SDS011;10548;47.504;8.248;2023-06-22T09:09:53;31.40;;;15.57;;
20776;SDS011;10548;47.504;8.248;2023-06-22T09:12:20;31.03;;;10.77;;
20776;SDS011;10548;47.504;8.248;2023-06-22T09:14:52;17.20;;;8.97;;
20776;SDS011;10548;47.504;8.248;2023-06-22T09:17:20;20.50;;;9.33;;
20776;SDS011;10548;47.504;8.248;2023-06-22T09:19:47;20.20;;;8.63;;
20776;SDS011;10548;47.504;8.248;2023-06-22T09:22:15;20.67;;;10.43;;
20776;SDS011;10548;47.504;8.248;2023-06-22T09:24:42;20.77;;;10.90;;
20776;SDS011;10548;47.504;8.248;2023-06-22T09:27:10;21.30;;;8.87;;
20776;SDS011;10548;47.504;8.248;2023-06-22T09:29:37;21.37;;;9.87;;
20776;SDS011;10548;47.504;8.248;2023-06-22T09:32:05;15.67;;;9.00;;
20776;SDS011;10548;47.504;8.248;2023-06-22T09:34:33;20.70;;;9.90;;
20776;SDS011;10548;47.504;8.248;2023-06-22T09:37:00;21.67;;;9.23;;
20776;SDS011;10548;47.504;8.248;2023-06-22T09:39:28;24.30;;;8.87;;
20776;SDS011;10548;47.504;8.248;2023-06-22T09:41:57;18.10;;;8.80;;
20776;SDS011;10548;47.504;8.248;2023-06-22T09:44:26;19.27;;;9.10;;
20776;SDS011;10548;47.504;8.248;2023-06-22T09:46:53;17.63;;;9.23;;
20776;SDS011;10548;47.504;8.248;2023-06-22T09:49:21;20.23;;;9.30;;
20776;SDS011;10548;47.504;8.248;2023-06-22T09:52:08;21.50;;;9.83;;
20776;SDS011;10548;47.504;8.248;2023-06-22T09:54:37;19.80;;;9.03;;
20776;SDS011;10548;47.504;8.248;2023-06-22T09:57:05;23.53;;;10.67;;
20776;SDS011;10548;47.504;8.248;2023-06-22T09:59:32;18.77;;;8.60;;
20776;SDS011;10548;47.504;8.248;2023-06-22T10:02:00;16.03;;;8.60;;
20776;SDS011;10548;47.504;8.248;2023-06-22T10:04:27;18.83;;;8.20;;
20776;SDS011;10548;47.504;8.248;2023-06-22T10:06:55;24.83;;;10.40;;
20776;SDS011;10548;47.504;8.248;2023-06-22T10:09:23;22.07;;;10.03;;
20776;SDS011;10548;47.504;8.248;2023-06-22T10:11:50;29.00;;;9.90;;
20776;SDS011;10548;47.504;8.248;2023-06-22T10:14:18;27.83;;;8.87;;
20776;SDS011;10548;47.504;8.248;2023-06-22T10:16:46;26.20;;;9.30;;
20776;SDS011;10548;47.504;8.248;2023-06-22T10:19:13;20.73;;;9.47;;
20776;SDS011;10548;47.504;8.248;2023-06-22T10:21:41;18.13;;;9.03;;
20776;SDS011;10548;47.504;8.248;2023-06-22T10:24:08;20.90;;;9.83;;
20776;SDS011;10548;47.504;8.248;2023-06-22T10:26:36;20.10;;;8.70;;
20776;SDS011;10548;47.504;8.248;2023-06-22T10:29:03;17.80;;;8.90;;
20776;SDS011;10548;47.504;8.248;2023-06-22T10:31:33;17.80;;;8.83;;
20776;SDS011;10548;47.504;8.248;2023-06-22T10:34:01;19.07;;;7.17;;
20776;SDS011;10548;47.504;8.248;2023-06-22T10:36:29;23.17;;;9.30;;
20776;SDS011;10548;47.504;8.248;2023-06-22T10:38:56;14.70;;;7.97;;
20776;SDS011;10548;47.504;8.248;2023-06-22T10:41:25;19.00;;;8.33;;
20776;SDS011;10548;47.504;8.248;2023-06-22T10:43:56;15.97;;;7.77;;
20776;SDS011;10548;47.504;8.248;2023-06-22T10:46:24;14.03;;;7.57;;
20776;SDS011;10548;47.504;8.248;2023-06-22T10:48:52;18.43;;;7.73;;
20776;SDS011;10548;47.504;8.248;2023-06-22T10:51:21;25.30;;;9.60;;
20776;SDS011;10548;47.504;8.248;2023-06-22T10:53:49;19.43;;;8.60;;
20776;SDS011;10548;47.504;8.248;2023-06-22T10:56:17;23.57;;;9.00;;
20776;SDS011;10548;47.504;8.248;2023-06-22T10:58:45;22.03;;;10.37;;
20776;SDS011;10548;47.504;8.248;2023-06-22T11:01:13;17.57;;;7.80;;
20776;SDS011;10548;47.504;8.248;2023-06-22T11:04:00;20.47;;;9.27;;
20776;SDS011;10548;47.504;8.248;2023-06-22T11:06:28;19.47;;;9.53;;
20776;SDS011;10548;47.504;8.248;2023-06-22T11:08:55;16.60;;;8.60;;
20776;SDS011;10548;47.504;8.248;2023-06-22T11:11:42;19.63;;;9.97;;
20776;SDS011;10548;47.504;8.248;2023-06-22T11:14:10;23.40;;;8.87;;
20776;SDS011;10548;47.504;8.248;2023-06-22T11:16:37;16.07;;;8.77;;
20776;SDS011;10548;47.504;8.248;2023-06-22T11:19:05;18.50;;;8.97;;
20776;SDS011;10548;47.504;8.248;2023-06-22T11:21:32;16.93;;;8.23;;
20776;SDS011;10548;47.504;8.248;2023-06-22T11:24:00;25.90;;;8.37;;
20776;SDS011;10548;47.504;8.248;2023-06-22T11:26:28;19.30;;;8.80;;
20776;SDS011;10548;47.504;8.248;2023-06-22T11:28:55;18.13;;;8.67;;
20776;SDS011;10548;47.504;8.248;2023-06-22T11:31:23;16.70;;;8.40;;
20776;SDS011;10548;47.504;8.248;2023-06-22T11:33:52;23.37;;;8.87;;
20776;SDS011;10548;47.504;8.248;2023-06-22T11:36:20;20.17;;;9.13;;
20776;SDS011;10548;47.504;8.248;2023-06-22T11:38:47;21.37;;;9.93;;
20776;SDS011;10548;47.504;8.248;2023-06-22T11:41:15;20.47;;;10.07;;
20776;SDS011;10548;47.504;8.248;2023-06-22T11:43:43;19.73;;;9.83;;
20776;SDS011;10548;47.504;8.248;2023-06-22T11:46:10;16.60;;;8.33;;
20776;SDS011;10548;47.504;8.248;2023-06-22T11:48:37;18.43;;;9.67;;
20776;SDS011;10548;47.504;8.248;2023-06-22T11:51:05;20.40;;;8.77;;
20776;SDS011;10548;47.504;8.248;2023-06-22T11:53:34;23.00;;;9.67;;
20776;SDS011;10548;47.504;8.248;2023-06-22T11:56:02;21.57;;;8.87;;
20776;SDS011;10548;47.504;8.248;2023-06-22T11:58:29;17.47;;;7.97;;
20776;SDS011;10548;47.504;8.248;2023-06-22T12:00:57;16.53;;;7.47;;
20776;SDS011;10548;47.504;8.248;2023-06-22T12:03:24;16.10;;;7.83;;
20776;SDS011;10548;47.504;8.248;2023-06-22T12:05:52;19.23;;;8.10;;
20776;SDS011;10548;47.504;8.248;2023-06-22T12:08:20;18.13;;;8.93;;
20776;SDS011;10548;47.504;8.248;2023-06-22T12:10:48;21.83;;;9.13;;
20776;SDS011;10548;47.504;8.248;2023-06-22T12:13:16;21.27;;;8.10;;
20776;SDS011;10548;47.504;8.248;2023-06-22T12:15:44;19.93;;;8.33;;
20776;SDS011;10548;47.504;8.248;2023-06-22T12:18:11;16.57;;;7.73;;
20776;SDS011;10548;47.504;8.248;2023-06-22T12:20:41;18.03;;;7.77;;
20776;SDS011;10548;47.504;8.248;2023-06-22T12:23:09;16.03;;;8.57;;
20776;SDS011;10548;47.504;8.248;2023-06-22T12:25:36;20.70;;;8.33;;
20776;SDS011;10548;47.504;8.248;2023-06-22T12:28:04;27.13;;;8.07;;
20776;SDS011;10548;47.504;8.248;2023-06-22T12:30:34;18.07;;;8.17;;
20776;SDS011;10548;47.504;8.248;2023-06-22T12:33:01;17.20;;;7.57;;
20776;SDS011;10548;47.504;8.248;2023-06-22T12:35:29;18.90;;;9.43;;
20776;SDS011;10548;47.504;8.248;2023-06-22T12:37:56;17.37;;;8.67;;
20776;SDS011;10548;47.504;8.248;2023-06-22T12:40:24;21.93;;;8.80;;
20776;SDS011;10548;47.504;8.248;2023-06-22T12:42:51;21.63;;;8.67;;
20776;SDS011;10548;47.504;8.248;2023-06-22T12:45:19;18.00;;;9.10;;
20776;SDS011;10548;47.504;8.248;2023-06-22T12:47:48;17.03;;;8.50;;
20776;SDS011;10548;47.504;8.248;2023-06-22T12:50:16;14.83;;;6.47;;
20776;SDS011;10548;47.504;8.248;2023-06-22T12:52:44;24.67;;;6.53;;
20776;SDS011;10548;47.504;8.248;2023-06-22T12:55:12;16.43;;;6.80;;
20776;SDS011;10548;47.504;8.248;2023-06-22T12:57:39;19.73;;;7.27;;
20776;SDS011;10548;47.504;8.248;2023-06-22T13:00:07;17.43;;;7.57;;
20776;SDS011;10548;47.504;8.248;2023-06-22T13:02:36;27.00;;;8.60;;
20776;SDS011;10548;47.504;8.248;2023-06-22T13:05:04;23.80;;;8.23;;
20776;SDS011;10548;47.504;8.248;2023-06-22T13:07:32;17.53;;;8.73;;
20776;SDS011;10548;47.504;8.248;2023-06-22T13:10:00;17.73;;;7.67;;
20776;SDS011;10548;47.504;8.248;2023-06-22T13:12:27;17.23;;;8.40;;
20776;SDS011;10548;47.504;8.248;2023-06-22T13:14:55;17.13;;;7.70;;
20776;SDS011;10548;47.504;8.248;2023-06-22T13:17:22;17.80;;;7.57;;
20776;SDS011;10548;47.504;8.248;2023-06-22T13:19:50;30.10;;;7.43;;
20776;SDS011;10548;47.504;8.248;2023-06-22T13:22:33;19.27;;;6.50;;
20776;SDS011;10548;47.504;8.248;2023-06-22T13:25:10;18.77;;;6.23;;
20776;SDS011;10548;47.504;8.248;2023-06-22T13:27:40;17.53;;;6.63;;
20776;SDS011;10548;47.504;8.248;2023-06-22T13:30:10;20.47;;;6.37;;
20776;SDS011;10548;47.504;8.248;2023-06-22T13:32:40;20.70;;;6.50;;
20776;SDS011;10548;47.504;8.248;2023-06-22T13:35:09;25.40;;;6.47;;
20776;SDS011;10548;47.504;8.248;2023-06-22T13:37:37;25.13;;;7.33;;
20776;SDS011;10548;47.504;8.248;2023-06-22T13:40:07;18.13;;;6.50;;
20776;SDS011;10548;47.504;8.248;2023-06-22T13:42:35;24.13;;;6.07;;
20776;SDS011;10548;47.504;8.248;2023-06-22T13:45:03;17.67;;;5.97;;
20776;SDS011;10548;47.504;8.248;2023-06-22T13:47:30;19.33;;;6.50;;
20776;SDS011;10548;47.504;8.248;2023-06-22T13:49:58;16.50;;;5.87;;
20776;SDS011;10548;47.504;8.248;2023-06-22T13:52:26;22.97;;;7.67;;
20776;SDS011;10548;47.504;8.248;2023-06-22T13:54:53;20.23;;;7.23;;
20776;SDS011;10548;47.504;8.248;2023-06-22T13:57:21;19.60;;;7.33;;
20776;SDS011;10548;47.504;8.248;2023-06-22T13:59:48;28.03;;;7.60;;
20776;SDS011;10548;47.504;8.248;2023-06-22T14:02:16;23.30;;;7.73;;
20776;SDS011;10548;47.504;8.248;2023-06-22T14:04:43;26.97;;;8.27;;
20776;SDS011;10548;47.504;8.248;2023-06-22T14:07:11;28.60;;;8.50;;
20776;SDS011;10548;47.504;8.248;2023-06-22T14:09:41;17.30;;;7.80;;
20776;SDS011;10548;47.504;8.248;2023-06-22T14:12:09;19.90;;;7.03;;
20776;SDS011;10548;47.504;8.248;2023-06-22T14:14:37;19.13;;;8.03;;
20776;SDS011;10548;47.504;8.248;2023-06-22T14:17:04;19.60;;;7.27;;
20776;SDS011;10548;47.504;8.248;2023-06-22T14:19:32;23.57;;;6.83;;
20776;SDS011;10548;47.504;8.248;2023-06-22T14:21:59;18.57;;;7.20;;
20776;SDS011;10548;47.504;8.248;2023-06-22T14:24:27;28.47;;;7.03;;
20776;SDS011;10548;47.504;8.248;2023-06-22T14:26:56;17.10;;;6.70;;
20776;SDS011;10548;47.504;8.248;2023-06-22T14:29:24;19.43;;;6.70;;
20776;SDS011;10548;47.504;8.248;2023-06-22T14:31:52;21.00;;;7.97;;
20776;SDS011;10548;47.504;8.248;2023-06-22T14:34:21;22.17;;;6.50;;
20776;SDS011;10548;47.504;8.248;2023-06-22T14:36:49;24.40;;;7.50;;
20776;SDS011;10548;47.504;8.248;2023-06-22T14:39:16;30.63;;;7.03;;
20776;SDS011;10548;47.504;8.248;2023-06-22T14:41:43;27.97;;;7.30;;
20776;SDS011;10548;47.504;8.248;2023-06-22T14:44:11;16.30;;;6.37;;
20776;SDS011;10548;47.504;8.248;2023-06-22T14:46:38;19.33;;;6.43;;
20776;SDS011;10548;47.504;8.248;2023-06-22T14:49:05;15.83;;;6.60;;
20776;SDS011;10548;47.504;8.248;2023-06-22T14:51:32;23.57;;;7.00;;
20776;SDS011;10548;47.504;8.248;2023-06-22T14:53:59;21.20;;;7.17;;
20776;SDS011;10548;47.504;8.248;2023-06-22T14:56:26;22.93;;;6.27;;
20776;SDS011;10548;47.504;8.248;2023-06-22T14:58:53;23.20;;;7.57;;
20776;SDS011;10548;47.504;8.248;2023-06-22T15:01:20;23.53;;;6.87;;
20776;SDS011;10548;47.504;8.248;2023-06-22T15:03:48;22.43;;;7.03;;
20776;SDS011;10548;47.504;8.248;2023-06-22T15:06:15;18.93;;;6.47;;
20776;SDS011;10548;47.504;8.248;2023-06-22T15:08:42;17.33;;;6.00;;
20776;SDS011;10548;47.504;8.248;2023-06-22T15:11:09;14.80;;;6.73;;
20776;SDS011;10548;47.504;8.248;2023-06-22T15:13:40;25.07;;;7.20;;
20776;SDS011;10548;47.504;8.248;2023-06-22T15:16:08;16.20;;;6.13;;
20776;SDS011;10548;47.504;8.248;2023-06-22T15:18:35;15.57;;;6.67;;
20776;SDS011;10548;47.504;8.248;2023-06-22T15:21:03;18.00;;;7.30;;
20776;SDS011;10548;47.504;8.248;2023-06-22T15:23:31;21.57;;;6.83;;
20776;SDS011;10548;47.504;8.248;2023-06-22T15:26:00;19.67;;;6.73;;
20776;SDS011;10548;47.504;8.248;2023-06-22T15:28:29;23.60;;;7.27;;
20776;SDS011;10548;47.504;8.248;2023-06-22T15:30:56;18.50;;;7.37;;
20776;SDS011;10548;47.504;8.248;2023-06-22T15:33:24;16.23;;;7.40;;
20776;SDS011;10548;47.504;8.248;2023-06-22T15:35:51;24.53;;;8.33;;
20776;SDS011;10548;47.504;8.248;2023-06-22T15:38:19;18.87;;;8.17;;
20776;SDS011;10548;47.504;8.248;2023-06-22T15:40:46;20.03;;;8.13;;
20776;SDS011;10548;47.504;8.248;2023-06-22T15:43:14;16.73;;;7.43;;
20776;SDS011;10548;47.504;8.248;2023-06-22T15:45:41;25.60;;;8.87;;
20776;SDS011;10548;47.504;8.248;2023-06-22T15:48:08;16.43;;;6.93;;
20776;SDS011;10548;47.504;8.248;2023-06-22T15:50:35;17.17;;;6.27;;
20776;SDS011;10548;47.504;8.248;2023-06-22T15:53:02;14.60;;;5.70;;